Time;durP1;ratioP1;P1;durP2;ratioP2;P2;SDS_P1;SDS_P2;PMS_P1;PMS_P2;Temp;Humidity;BMP_temperature;BMP_pressure;BME280_temperature;BME280_humidity;BME280_pressure;Samples;Min_cycle;Max_cycle;Signal;HPM_P1;HPM_P2
2023/03/18 00:00:40;;;;;;;19.02;12.77;;;11.70;65.40;;;;;;5077376;28;20036;-83
2023/03/18 00:03:06;;;;;;;21.42;11.50;;;11.70;65.10;;;;;;5101699;22;20051;-84
2023/03/18 00:05:33;;;;;;;19.80;10.45;;;11.70;65.50;;;;;;5093028;28;20032;-83
2023/03/18 00:07:59;;;;;;;22.15;9.13;;;11.70;65.60;;;;;;5118910;28;20058;-82
2023/03/18 00:10:25;;;;;;;17.33;8.85;;;11.70;65.30;;;;;;5116203;28;20032;-84
2023/03/18 00:12:52;;;;;;;13.10;9.10;;;11.60;65.40;;;;;;5126534;28;20063;-83
2023/03/18 00:15:18;;;;;;;18.65;9.05;;;11.60;65.40;;;;;;5139633;27;20042;-83
2023/03/18 00:17:45;;;;;;;16.77;9.25;;;11.60;65.60;;;;;;5107548;28;20044;-83
2023/03/18 00:20:12;;;;;;;21.65;9.23;;;11.50;65.40;;;;;;5095786;28;20032;-82
2023/03/18 00:22:39;;;;;;;16.85;9.32;;;11.50;66.00;;;;;;5094395;28;20105;-81
2023/03/18 00:25:07;;;;;;;13.88;8.95;;;11.50;66.40;;;;;;5094555;28;20032;-81
2023/03/18 00:27:34;;;;;;;17.17;9.50;;;11.40;66.50;;;;;;5093489;28;20032;-81
2023/03/18 00:30:00;;;;;;;13.75;8.75;;;11.40;66.50;;;;;;5093917;28;20032;-82
2023/03/18 00:32:27;;;;;;;17.65;9.00;;;11.40;66.80;;;;;;5093592;28;20036;-83
2023/03/18 00:34:53;;;;;;;17.30;9.35;;;11.40;66.50;;;;;;5094095;28;20055;-83
2023/03/18 00:37:29;;;;;;;15.90;9.38;;;11.40;67.10;;;;;;5094059;28;20032;-82
2023/03/18 00:40:05;;;;;;;21.08;9.00;;;11.40;66.50;;;;;;5093925;28;20024;-83
2023/03/18 00:42:37;;;;;;;15.00;9.52;;;11.30;67.00;;;;;;5093146;28;20054;-82
2023/03/18 00:45:05;;;;;;;21.50;10.18;;;11.30;67.00;;;;;;5095560;28;20379;-82
2023/03/18 00:47:31;;;;;;;15.93;9.50;;;11.30;67.20;;;;;;5095205;28;20499;-82
2023/03/18 00:49:57;;;;;;;18.02;9.85;;;11.30;67.40;;;;;;5101070;28;20034;-82
2023/03/18 00:52:24;;;;;;;21.23;9.30;;;11.30;67.20;;;;;;5118385;28;20134;-82
2023/03/18 00:54:50;;;;;;;15.18;9.70;;;11.20;67.50;;;;;;5113267;28;20036;-81
2023/03/18 00:57:16;;;;;;;16.40;9.80;;;11.10;67.50;;;;;;5093877;28;20364;-81
2023/03/18 00:59:42;;;;;;;16.63;9.55;;;11.20;67.90;;;;;;5094117;28;20057;-82
2023/03/18 01:02:08;;;;;;;15.98;9.65;;;11.20;68.00;;;;;;5093350;28;20044;-82
2023/03/18 01:04:33;;;;;;;20.60;10.30;;;11.20;67.80;;;;;;5093390;28;20123;-82
2023/03/18 01:07:00;;;;;;;19.33;10.05;;;11.20;67.80;;;;;;5093152;28;20032;-82
2023/03/18 01:09:26;;;;;;;18.98;9.75;;;11.20;68.10;;;;;;5093260;28;20505;-82
2023/03/18 01:11:51;;;;;;;15.52;9.57;;;11.20;67.90;;;;;;5113256;28;20126;-82
2023/03/18 01:14:18;;;;;;;18.10;9.93;;;11.20;68.20;;;;;;5113892;28;20110;-83
2023/03/18 01:16:45;;;;;;;18.92;10.13;;;11.10;68.20;;;;;;5113815;28;20047;-81
2023/03/18 01:19:12;;;;;;;18.77;9.60;;;11.00;68.40;;;;;;5113596;28;20071;-82
2023/03/18 01:21:38;;;;;;;15.80;9.25;;;11.00;68.50;;;;;;5095637;28;20047;-81
2023/03/18 01:24:05;;;;;;;16.63;9.73;;;11.00;68.40;;;;;;5113936;28;20016;-82
2023/03/18 01:26:31;;;;;;;14.82;9.48;;;11.00;68.10;;;;;;5113768;28;20039;-82
2023/03/18 01:28:57;;;;;;;14.90;9.25;;;11.00;68.30;;;;;;5113366;28;20102;-82
2023/03/18 01:31:24;;;;;;;19.55;9.40;;;11.00;68.50;;;;;;5113431;28;20193;-81
2023/03/18 01:33:50;;;;;;;15.18;9.43;;;11.00;68.70;;;;;;5113625;28;20034;-81
2023/03/18 01:36:16;;;;;;;16.02;9.38;;;11.00;68.50;;;;;;5114489;28;20047;-81
2023/03/18 01:38:42;;;;;;;17.55;9.38;;;11.00;68.40;;;;;;5118208;28;20103;-82
2023/03/18 01:41:09;;;;;;;21.38;9.57;;;11.00;68.20;;;;;;5115252;28;20080;-82
2023/03/18 01:43:37;;;;;;;17.27;9.32;;;11.00;68.40;;;;;;5113931;28;20538;-82
2023/03/18 01:46:34;;;;;;;14.32;8.55;;;10.90;68.60;;;;;;5113234;28;20059;-82
2023/03/18 01:49:04;;;;;;;15.45;9.10;;;10.90;68.80;;;;;;5113642;28;20019;-81
2023/03/18 01:51:30;;;;;;;17.30;9.20;;;10.90;68.80;;;;;;5113460;28;20055;-81
2023/03/18 01:53:58;;;;;;;15.32;9.13;;;10.90;69.00;;;;;;5113095;28;20035;-82
2023/03/18 01:56:24;;;;;;;16.90;9.13;;;10.90;68.70;;;;;;5113283;28;20047;-81
2023/03/18 01:58:54;;;;;;;14.10;8.60;;;10.80;68.70;;;;;;5094985;28;20111;-83
2023/03/18 02:01:36;;;;;;;14.75;8.98;;;10.80;69.00;;;;;;5093237;28;20079;-82
2023/03/18 02:04:06;;;;;;;18.23;9.18;;;10.70;69.20;;;;;;5092014;28;20039;-83
2023/03/18 02:06:32;;;;;;;16.77;8.63;;;10.70;69.10;;;;;;5074504;28;20036;-82
2023/03/18 02:08:59;;;;;;;18.98;8.82;;;10.70;69.10;;;;;;5093209;28;20039;-82
2023/03/18 02:11:25;;;;;;;14.32;8.75;;;10.70;69.00;;;;;;5092932;28;20417;-81
2023/03/18 02:13:52;;;;;;;15.27;9.35;;;10.70;69.30;;;;;;5092307;28;20107;-80
2023/03/18 02:16:24;;;;;;;18.17;9.52;;;10.60;69.60;;;;;;5102571;28;20040;-81
2023/03/18 02:18:56;;;;;;;16.17;9.45;;;10.50;69.30;;;;;;5096274;28;20028;-82
2023/03/18 02:21:40;;;;;;;17.17;9.45;;;10.60;69.30;;;;;;5092721;28;20027;-80
2023/03/18 02:24:27;;;;;;;;;;;10.50;69.50;;;;;;5095865;28;20020;-80
2023/03/18 02:27:14;;;;;;;16.33;9.30;;;10.50;71.00;;;;;;5096670;28;19938;-81
2023/03/18 02:29:43;;;;;;;18.10;9.25;;;10.50;69.80;;;;;;5092729;28;20055;-82
2023/03/18 02:32:10;;;;;;;17.33;9.35;;;10.50;69.70;;;;;;5093569;28;20117;-82
2023/03/18 02:34:37;;;;;;;16.13;9.57;;;10.50;69.40;;;;;;5092970;28;20032;-81
2023/03/18 02:37:03;;;;;;;16.85;9.50;;;10.50;69.50;;;;;;5092636;28;20108;-81
2023/03/18 02:39:30;;;;;;;16.25;9.10;;;10.50;69.30;;;;;;5092924;28;20072;-80
2023/03/18 02:41:56;;;;;;;14.43;8.43;;;10.50;69.80;;;;;;5092181;28;20075;-80
2023/03/18 02:44:22;;;;;;;15.48;7.95;;;10.50;69.90;;;;;;5092652;28;20471;-81
2023/03/18 02:46:58;;;;;;;13.23;9.02;;;10.50;69.60;;;;;;5092640;28;20036;-81
2023/03/18 02:49:26;;;;;;;12.68;7.95;;;10.40;70.10;;;;;;5092474;28;20105;-82
2023/03/18 02:51:53;;;;;;;12.25;8.55;;;10.40;69.90;;;;;;5095133;28;20040;-81
2023/03/18 02:54:27;;;;;;;12.18;7.90;;;10.40;70.00;;;;;;5096190;28;20032;-80
2023/03/18 02:56:54;;;;;;;16.80;8.98;;;10.40;69.90;;;;;;5097536;28;20430;-82
2023/03/18 02:59:20;;;;;;;17.00;8.10;;;10.40;70.00;;;;;;5097891;28;20032;-80
2023/03/18 03:01:48;;;;;;;13.50;8.77;;;10.30;70.60;;;;;;5113645;28;20040;-81
2023/03/18 03:04:15;;;;;;;12.77;8.40;;;10.30;70.40;;;;;;5114782;28;20032;-80
2023/03/18 03:06:42;;;;;;;14.45;8.77;;;10.20;70.20;;;;;;5096621;28;20119;-80
2023/03/18 03:09:09;;;;;;;13.35;9.05;;;10.20;70.30;;;;;;5095940;28;20429;-81
2023/03/18 03:11:35;;;;;;;15.10;8.88;;;10.20;70.80;;;;;;5098994;28;20391;-80
2023/03/18 03:14:01;;;;;;;15.40;8.85;;;10.10;70.60;;;;;;5099721;28;20426;-80
2023/03/18 03:16:27;;;;;;;15.25;9.00;;;10.10;70.60;;;;;;5096536;28;20577;-81
2023/03/18 03:18:53;;;;;;;15.55;9.57;;;10.10;70.60;;;;;;5101835;28;20055;-80
2023/03/18 03:21:19;;;;;;;17.45;9.65;;;10.10;71.60;;;;;;5099510;28;20082;-80
2023/03/18 03:23:46;;;;;;;15.02;9.35;;;10.20;71.40;;;;;;5098859;28;20028;-81
2023/03/18 03:26:13;;;;;;;12.57;8.73;;;10.10;70.60;;;;;;5096655;28;20154;-81
2023/03/18 03:28:39;;;;;;;15.13;8.63;;;10.10;71.10;;;;;;5095610;28;20032;-81
2023/03/18 03:31:05;;;;;;;14.27;8.73;;;10.10;71.10;;;;;;5095722;28;20411;-81
2023/03/18 03:33:32;;;;;;;17.13;9.02;;;10.10;70.80;;;;;;5118802;28;20028;-81
2023/03/18 03:35:57;;;;;;;16.55;9.15;;;10.10;70.40;;;;;;5095520;28;20063;-81
2023/03/18 03:38:24;;;;;;;15.90;9.57;;;10.10;70.60;;;;;;5094846;28;20040;-82
2023/03/18 03:40:50;;;;;;;18.13;9.02;;;10.10;70.70;;;;;;5094794;28;20036;-82
2023/03/18 03:43:16;;;;;;;22.00;9.13;;;10.10;70.90;;;;;;5094693;28;20028;-81
2023/03/18 03:45:45;;;;;;;16.35;9.27;;;10.00;70.60;;;;;;5094733;28;20036;-81
2023/03/18 03:48:11;;;;;;;16.13;9.48;;;10.00;71.60;;;;;;5094917;28;20098;-81
2023/03/18 03:50:38;;;;;;;12.90;8.93;;;9.90;72.00;;;;;;5094819;28;20572;-82
2023/03/18 03:53:05;;;;;;;14.77;8.90;;;9.90;72.00;;;;;;5094357;28;20082;-82
2023/03/18 03:55:32;;;;;;;14.07;7.97;;;9.90;72.20;;;;;;5094908;28;20117;-81
2023/03/18 03:57:58;;;;;;;13.52;8.55;;;9.80;72.10;;;;;;5094896;28;20056;-82
2023/03/18 04:00:24;;;;;;;13.80;8.52;;;9.80;72.10;;;;;;5099579;28;20051;-82
2023/03/18 04:02:51;;;;;;;14.52;8.35;;;9.80;72.10;;;;;;5095975;28;20050;-82
2023/03/18 04:05:20;;;;;;;15.25;8.85;;;9.80;72.00;;;;;;5094589;28;20063;-82
2023/03/18 04:07:46;;;;;;;16.73;8.50;;;9.90;72.20;;;;;;5094454;28;20032;-81
2023/03/18 04:10:15;;;;;;;16.25;9.20;;;9.90;71.90;;;;;;5094266;28;20043;-82
2023/03/18 04:12:41;;;;;;;18.52;9.07;;;9.90;72.00;;;;;;5094363;28;20519;-82
2023/03/18 04:15:08;;;;;;;17.10;8.77;;;9.90;71.80;;;;;;5094309;28;20048;-82
2023/03/18 04:17:34;;;;;;;18.30;8.70;;;9.90;71.80;;;;;;5075385;28;20036;-82
2023/03/18 04:20:00;;;;;;;16.70;8.40;;;9.80;72.00;;;;;;5093678;28;20039;-81
2023/03/18 04:22:26;;;;;;;14.00;8.68;;;9.80;71.70;;;;;;5093838;28;20032;-81
2023/03/18 04:24:52;;;;;;;16.40;9.98;;;9.80;71.80;;;;;;5093981;28;20035;-81
2023/03/18 04:27:18;;;;;;;16.40;9.75;;;9.80;71.80;;;;;;5094047;28;20032;-83
2023/03/18 04:29:44;;;;;;;14.70;10.00;;;9.80;72.30;;;;;;5094214;28;20039;-82
2023/03/18 04:32:10;;;;;;;16.13;9.50;;;9.80;72.10;;;;;;5094104;28;20399;-82
2023/03/18 04:34:37;;;;;;;15.00;10.55;;;9.70;72.20;;;;;;5093758;28;20507;-82
2023/03/18 04:37:03;;;;;;;18.10;10.70;;;9.70;72.20;;;;;;5093727;28;20031;-82
2023/03/18 04:39:29;;;;;;;16.95;9.95;;;9.70;72.30;;;;;;5093715;28;20103;-82
2023/03/18 04:41:55;;;;;;;19.17;9.95;;;9.70;72.40;;;;;;5093765;28;20396;-81
2023/03/18 04:44:23;;;;;;;13.93;9.48;;;9.70;72.60;;;;;;5094394;28;20097;-81
2023/03/18 04:46:49;;;;;;;18.05;9.75;;;9.60;72.30;;;;;;5095147;28;20107;-83
2023/03/18 04:49:15;;;;;;;21.95;10.48;;;9.60;72.60;;;;;;5098677;28;20153;-81
2023/03/18 04:51:41;;;;;;;16.35;9.80;;;9.60;72.60;;;;;;5087495;28;20063;-81
2023/03/18 04:54:07;;;;;;;14.93;9.18;;;9.60;72.70;;;;;;5095773;28;20024;-82
2023/03/18 04:56:33;;;;;;;13.82;9.75;;;9.60;72.80;;;;;;5075511;28;20028;-82
2023/03/18 04:58:59;;;;;;;21.60;9.90;;;9.60;72.60;;;;;;5094177;28;20028;-81
2023/03/18 05:01:25;;;;;;;20.98;10.35;;;9.60;72.50;;;;;;5093906;28;20040;-82
2023/03/18 05:03:51;;;;;;;18.90;9.75;;;9.50;72.50;;;;;;5093348;28;20100;-82
2023/03/18 05:06:26;;;;;;;16.85;9.23;;;9.60;72.70;;;;;;5093664;28;20036;-82
2023/03/18 05:08:52;;;;;;;16.48;9.15;;;9.50;72.80;;;;;;5093047;28;20032;-82
2023/03/18 05:11:19;;;;;;;17.40;8.85;;;9.40;72.60;;;;;;5093643;28;20052;-83
2023/03/18 05:13:45;;;;;;;16.65;8.60;;;9.30;72.60;;;;;;5096308;28;20028;-81
2023/03/18 05:16:11;;;;;;;16.38;8.57;;;9.40;73.00;;;;;;5093549;28;20082;-81
2023/03/18 05:18:37;;;;;;;19.38;8.32;;;9.30;73.00;;;;;;5092724;28;20028;-82
2023/03/18 05:21:04;;;;;;;13.07;8.27;;;9.30;73.20;;;;;;5092800;28;20035;-82
2023/03/18 05:23:30;;;;;;;15.30;8.75;;;9.30;73.30;;;;;;5093043;28;20020;-81
2023/03/18 05:25:56;;;;;;;17.23;8.52;;;9.30;73.30;;;;;;5093084;28;20032;-81
2023/03/18 05:28:22;;;;;;;14.23;8.77;;;9.30;73.10;;;;;;5093252;28;20024;-82
2023/03/18 05:30:48;;;;;;;13.93;9.00;;;9.30;73.30;;;;;;5092705;28;20637;-82
2023/03/18 05:33:14;;;;;;;14.70;8.73;;;9.30;73.40;;;;;;5093001;28;20028;-82
2023/03/18 05:35:40;;;;;;;12.65;8.20;;;9.30;73.00;;;;;;5095184;28;20058;-83
2023/03/18 05:38:06;;;;;;;17.00;8.30;;;9.20;73.00;;;;;;5103320;28;20051;-81
2023/03/18 05:40:33;;;;;;;15.60;8.30;;;9.20;73.40;;;;;;5107081;28;20028;-82
2023/03/18 05:42:58;;;;;;;14.43;8.85;;;9.20;73.50;;;;;;5097590;28;20030;-82
2023/03/18 05:45:24;;;;;;;14.98;8.48;;;9.10;73.30;;;;;;5094571;28;20443;-82
2023/03/18 05:47:50;;;;;;;13.25;8.00;;;9.10;73.40;;;;;;5093989;28;20484;-82
2023/03/18 05:50:38;;;;;;;16.35;8.45;;;9.10;73.60;;;;;;5093328;28;20028;-82
2023/03/18 05:53:05;;;;;;;13.68;8.35;;;9.20;73.50;;;;;;5093161;28;20036;-81
2023/03/18 05:55:31;;;;;;;13.23;8.00;;;9.20;73.60;;;;;;5093202;28;20522;-82
2023/03/18 05:57:59;;;;;;;13.65;7.90;;;9.20;73.30;;;;;;5094663;28;20533;-80
2023/03/18 06:00:27;;;;;;;15.57;7.97;;;9.20;73.40;;;;;;5093947;28;20036;-84
2023/03/18 06:02:53;;;;;;;14.27;8.27;;;9.20;73.30;;;;;;5075337;28;20131;-81
2023/03/18 06:05:21;;;;;;;14.32;7.88;;;9.20;73.20;;;;;;5093533;28;20492;-83
2023/03/18 06:07:47;;;;;;;16.23;8.18;;;9.20;73.10;;;;;;5105886;28;20043;-83
2023/03/18 06:10:13;;;;;;;14.43;7.72;;;9.30;73.50;;;;;;5099884;28;20032;-79
2023/03/18 06:12:40;;;;;;;26.77;8.98;;;9.30;73.30;;;;;;5092817;28;20040;-82
2023/03/18 06:15:07;;;;;;;15.25;8.30;;;9.30;73.50;;;;;;5092693;28;20484;-82
2023/03/18 06:17:33;;;;;;;15.77;8.90;;;9.40;73.50;;;;;;5094348;28;20116;-80
2023/03/18 06:19:59;;;;;;;16.15;7.95;;;9.50;72.90;;;;;;5095071;28;20024;-82
2023/03/18 06:22:25;;;;;;;15.52;8.60;;;9.70;73.10;;;;;;5100840;28;20079;-81
2023/03/18 06:24:52;;;;;;;12.88;8.30;;;9.80;72.60;;;;;;5115119;28;20035;-81
2023/03/18 06:27:18;;;;;;;12.63;8.20;;;10.00;71.40;;;;;;5119143;28;20032;-81
2023/03/18 06:29:44;;;;;;;15.25;7.75;;;10.20;70.90;;;;;;5102960;28;20020;-79
2023/03/18 06:32:09;;;;;;;15.52;7.97;;;10.50;70.60;;;;;;5120998;28;20059;-81
2023/03/18 06:34:35;;;;;;;12.43;8.45;;;10.70;70.00;;;;;;5098676;28;20040;-82
2023/03/18 06:37:02;;;;;;;18.42;8.73;;;10.90;69.90;;;;;;5097515;28;20036;-81
2023/03/18 06:39:28;;;;;;;14.27;8.20;;;11.00;69.40;;;;;;5096980;28;20024;-81
2023/03/18 06:41:54;;;;;;;15.70;8.43;;;11.20;69.10;;;;;;5097159;28;20444;-82
2023/03/18 06:44:21;;;;;;;15.30;8.85;;;11.30;68.90;;;;;;5096801;28;20039;-82
2023/03/18 06:46:47;;;;;;;12.13;7.80;;;11.40;68.70;;;;;;5096554;28;20036;-83
2023/03/18 06:49:13;;;;;;;24.27;9.40;;;11.50;68.80;;;;;;5096430;28;20102;-85
2023/03/18 06:51:40;;;;;;;16.08;8.63;;;11.70;68.60;;;;;;5096244;28;20052;-80
2023/03/18 06:54:06;;;;;;;16.88;8.65;;;11.90;68.30;;;;;;5057877;28;20029;-83
2023/03/18 06:56:36;;;;;;;14.10;8.70;;;12.00;67.70;;;;;;5057539;28;20131;-82
2023/03/18 06:59:02;;;;;;;13.55;8.90;;;12.10;67.20;;;;;;5058706;28;20036;-83
2023/03/18 07:01:29;;;;;;;17.55;9.15;;;12.30;66.80;;;;;;5075622;28;20082;-83
2023/03/18 07:03:57;;;;;;;16.40;8.98;;;12.40;66.50;;;;;;5057535;28;20033;-82
2023/03/18 07:06:23;;;;;;;17.52;9.07;;;12.60;66.30;;;;;;5076925;28;20033;-81
2023/03/18 07:08:49;;;;;;;16.20;8.77;;;12.80;66.10;;;;;;5079817;28;20044;-82
2023/03/18 07:11:15;;;;;;;14.82;8.95;;;12.90;65.20;;;;;;5076862;28;20090;-82
2023/03/18 07:13:41;;;;;;;14.85;8.25;;;13.00;64.80;;;;;;5076319;28;20036;-82
2023/03/18 07:16:07;;;;;;;18.40;9.05;;;13.10;64.60;;;;;;5076145;28;20177;-81
2023/03/18 07:18:32;;;;;;;20.05;10.98;;;13.20;64.20;;;;;;5075759;28;20420;-81
2023/03/18 07:20:58;;;;;;;17.15;10.07;;;13.30;64.50;;;;;;5084989;28;20088;-81
2023/03/18 07:23:24;;;;;;;23.13;13.20;;;13.50;63.90;;;;;;5090602;28;20068;-82
2023/03/18 07:25:50;;;;;;;19.75;9.30;;;13.60;63.50;;;;;;5058505;28;20040;-82
2023/03/18 07:28:16;;;;;;;15.82;8.73;;;13.80;63.20;;;;;;5076104;28;20033;-83
2023/03/18 07:30:41;;;;;;;18.98;10.02;;;13.80;62.40;;;;;;5087204;28;20048;-83
2023/03/18 07:33:07;;;;;;;18.70;9.50;;;13.90;62.60;;;;;;5088811;28;20051;-82
2023/03/18 07:35:33;;;;;;;13.65;8.40;;;14.00;63.20;;;;;;5075790;28;20054;-82
2023/03/18 07:37:59;;;;;;;15.77;10.10;;;14.20;62.90;;;;;;5081572;28;20025;-82
2023/03/18 07:40:25;;;;;;;14.40;9.65;;;14.30;62.70;;;;;;5076320;28;20039;-80
2023/03/18 07:42:51;;;;;;;14.25;10.27;;;14.40;62.60;;;;;;5076206;28;20048;-82
2023/03/18 07:45:18;;;;;;;14.18;9.63;;;14.50;62.70;;;;;;5077646;28;20040;-82
2023/03/18 07:47:43;;;;;;;15.07;9.57;;;14.60;62.70;;;;;;5076293;28;20085;-81
2023/03/18 07:50:11;;;;;;;16.17;9.75;;;14.70;62.60;;;;;;5075174;28;20037;-82
2023/03/18 07:52:37;;;;;;;19.50;10.00;;;14.90;62.80;;;;;;5077797;28;20054;-82
2023/03/18 07:55:03;;;;;;;21.85;10.43;;;15.00;62.70;;;;;;5082637;28;20040;-81
2023/03/18 07:57:29;;;;;;;17.67;10.23;;;15.00;62.60;;;;;;5086210;28;20044;-81
2023/03/18 07:59:55;;;;;;;15.55;9.85;;;15.00;62.70;;;;;;5087475;28;20025;-82
2023/03/18 08:02:20;;;;;;;15.88;10.13;;;15.10;62.70;;;;;;5104863;28;20056;-82
2023/03/18 08:04:46;;;;;;;15.20;10.10;;;15.10;62.60;;;;;;5105735;28;20082;-80
2023/03/18 08:07:12;;;;;;;12.77;7.50;;;15.20;62.70;;;;;;5110963;28;20036;-82
2023/03/18 08:09:38;;;;;;;10.68;6.80;;;15.20;62.70;;;;;;5084990;28;20120;-82
2023/03/18 08:12:04;;;;;;;11.95;5.90;;;15.10;62.80;;;;;;5102124;28;20129;-83
2023/03/18 08:14:30;;;;;;;11.38;4.70;;;15.20;62.90;;;;;;5101992;28;20035;-81
2023/03/18 08:16:56;;;;;;;7.97;4.30;;;15.20;62.70;;;;;;5101968;28;20040;-81
2023/03/18 08:19:22;;;;;;;6.43;3.80;;;15.10;62.60;;;;;;5088125;28;20040;-78
2023/03/18 08:21:47;;;;;;;11.00;3.95;;;15.10;62.20;;;;;;5076442;28;20500;-81
2023/03/18 08:24:13;;;;;;;10.93;3.90;;;15.00;61.90;;;;;;5073975;28;20025;-76
2023/03/18 08:26:39;;;;;;;9.13;3.80;;;15.00;62.00;;;;;;5079436;28;20032;-74
2023/03/18 08:29:05;;;;;;;9.10;4.75;;;15.10;62.20;;;;;;5074305;28;20039;-73
2023/03/18 08:31:31;;;;;;;9.20;4.38;;;15.00;61.80;;;;;;5055624;28;20115;-73
2023/03/18 08:33:58;;;;;;;7.47;4.15;;;15.00;61.80;;;;;;5073813;28;20116;-73
2023/03/18 08:36:24;;;;;;;12.82;3.90;;;15.00;61.60;;;;;;5081477;28;20036;-73
2023/03/18 08:38:50;;;;;;;6.93;3.67;;;15.10;62.40;;;;;;5074790;28;20029;-73
2023/03/18 08:41:16;;;;;;;8.95;3.85;;;15.10;61.60;;;;;;5076056;28;20040;-76
2023/03/18 08:43:42;;;;;;;8.95;3.97;;;15.10;61.50;;;;;;5073558;28;20036;-72
2023/03/18 08:46:07;;;;;;;7.55;3.65;;;15.10;61.40;;;;;;5055143;28;20133;-72
2023/03/18 08:48:34;;;;;;;13.52;3.45;;;15.10;61.30;;;;;;5054355;28;20033;-72
2023/03/18 08:51:07;;;;;;;8.32;3.75;;;15.20;61.20;;;;;;5073775;28;20059;-71
2023/03/18 08:53:33;;;;;;;9.30;3.80;;;15.20;61.60;;;;;;5073458;28;20107;-74
2023/03/18 08:56:00;;;;;;;7.60;3.35;;;15.20;61.30;;;;;;5073440;28;20040;-74
2023/03/18 08:58:26;;;;;;;11.07;4.13;;;15.20;61.30;;;;;;5080965;28;20028;-72
2023/03/18 09:00:54;;;;;;;8.95;3.20;;;15.20;61.20;;;;;;5087817;28;20063;-72
2023/03/18 09:03:20;;;;;;;9.75;3.17;;;15.30;61.20;;;;;;5080741;28;20071;-74
2023/03/18 09:05:54;;;;;;;7.65;3.40;;;15.30;60.90;;;;;;5084052;28;20496;-75
2023/03/18 09:08:20;;;;;;;;;;;15.30;60.60;;;;;;5093962;28;20032;-72
2023/03/18 09:10:47;;;;;;;7.88;3.17;;;15.30;60.70;;;;;;5088931;28;20019;-76
2023/03/18 09:13:14;;;;;;;16.92;8.50;;;15.40;60.50;;;;;;5075045;28;20391;-75
2023/03/18 09:15:40;;;;;;;14.57;4.38;;;15.40;60.30;;;;;;5103507;28;20044;-72
2023/03/18 09:18:07;;;;;;;10.40;3.30;;;15.40;60.40;;;;;;5095738;28;20489;-75
2023/03/18 09:20:33;;;;;;;8.32;2.97;;;15.50;60.30;;;;;;5090946;28;20580;-72
2023/03/18 09:22:59;;;;;;;10.55;3.58;;;15.50;60.40;;;;;;5082862;28;20063;-73
2023/03/18 09:25:25;;;;;;;9.00;4.40;;;15.60;60.60;;;;;;5073822;28;20047;-72
2023/03/18 09:27:52;;;;;;;8.20;4.80;;;15.60;60.40;;;;;;5070810;28;20202;-72
2023/03/18 09:30:18;;;;;;;7.05;2.80;;;15.60;60.20;;;;;;5074670;28;20380;-70
2023/03/18 09:32:44;;;;;;;10.38;3.75;;;15.60;60.10;;;;;;5072236;28;20444;-71
2023/03/18 09:35:11;;;;;;;10.02;4.00;;;15.70;60.10;;;;;;5090455;28;20078;-73
2023/03/18 09:37:37;;;;;;;8.63;3.30;;;15.70;59.60;;;;;;5080204;28;20064;-73
2023/03/18 09:40:06;;;;;;;7.45;3.72;;;15.70;59.40;;;;;;5080699;28;20146;-74
2023/03/18 09:42:56;;;;;;;10.40;3.78;;;15.80;59.10;;;;;;5091809;28;20530;-72
2023/03/18 09:45:37;;;;;;;13.07;3.90;;;15.80;58.70;;;;;;5072499;28;20158;-74
2023/03/18 09:48:18;;;;;;;8.27;3.67;;;15.90;58.90;;;;;;5072402;28;20032;-74
2023/03/18 09:50:58;;;;;;;7.03;3.40;;;16.00;58.70;;;;;;5065848;28;20028;-76
2023/03/18 09:53:30;;;;;;;10.20;3.75;;;16.00;58.40;;;;;;5089436;28;20111;-75
2023/03/18 09:56:00;;;;;;;7.75;3.95;;;16.10;58.30;;;;;;5086925;28;20039;-76
2023/03/18 09:58:29;;;;;;;7.18;3.80;;;16.10;58.60;;;;;;5092931;28;20069;-75
2023/03/18 10:01:03;;;;;;;7.78;4.10;;;16.20;58.20;;;;;;5096007;28;20032;-76
2023/03/18 10:03:36;;;;;;;7.65;3.88;;;16.20;58.00;;;;;;5097343;28;20048;-76
2023/03/18 10:06:05;;;;;;;7.38;4.07;;;16.30;57.50;;;;;;5097107;28;20043;-75
2023/03/18 10:08:34;;;;;;;8.73;4.65;;;16.40;56.80;;;;;;5097419;28;20089;-75
2023/03/18 10:11:05;;;;;;;9.13;4.85;;;16.50;56.80;;;;;;5079942;28;20131;-75
2023/03/18 10:13:38;;;;;;;9.82;5.30;;;16.50;55.70;;;;;;5097794;28;20031;-75
2023/03/18 10:16:11;;;;;;;9.00;5.10;;;16.60;56.90;;;;;;5096817;28;20024;-76
2023/03/18 10:18:40;;;;;;;10.70;4.80;;;16.60;56.10;;;;;;5096524;28;20056;-75
2023/03/18 10:21:15;;;;;;;12.63;4.45;;;16.70;56.30;;;;;;5096840;28;20039;-76
2023/03/18 10:23:44;;;;;;;10.18;4.53;;;16.70;56.10;;;;;;5096845;28;20032;-77
2023/03/18 10:26:19;;;;;;;8.88;4.30;;;16.80;55.90;;;;;;5096577;28;20111;-75
2023/03/18 10:29:00;;;;;;;11.00;4.43;;;16.90;56.90;;;;;;5096608;28;20036;-75
2023/03/18 10:31:28;;;;;;;8.43;4.05;;;17.00;56.80;;;;;;5096576;28;20495;-75
2023/03/18 10:33:53;;;;;;;10.32;3.10;;;17.00;55.70;;;;;;5096682;28;20036;-75
2023/03/18 10:36:47;;;;;;;8.90;3.05;;;17.10;55.50;;;;;;5096682;28;20029;-76
2023/03/18 10:39:15;;;;;;;9.30;3.35;;;17.20;54.90;;;;;;5096630;28;20036;-76
2023/03/18 10:41:46;;;;;;;10.32;3.40;;;17.20;54.70;;;;;;5096721;28;20072;-76
2023/03/18 10:44:29;;;;;;;7.38;2.90;;;17.30;55.00;;;;;;5096339;28;20032;-75
2023/03/18 10:47:20;;;;;;;9.07;3.25;;;17.40;54.90;;;;;;5096241;28;20136;-76
2023/03/18 10:50:05;;;;;;;6.78;2.95;;;17.40;54.70;;;;;;5094689;28;20043;-76
2023/03/18 10:52:42;;;;;;;5.00;2.55;;;17.50;54.80;;;;;;5095791;28;20043;-76
2023/03/18 10:55:21;;;;;;;5.68;2.50;;;17.60;54.00;;;;;;5095909;28;20030;-76
2023/03/18 10:57:47;;;;;;;7.25;2.50;;;17.60;53.50;;;;;;5098209;28;20043;-76
2023/03/18 11:00:33;;;;;;;5.95;2.38;;;17.70;53.60;;;;;;5096016;28;20036;-76
2023/03/18 11:03:00;;;;;;;7.80;3.15;;;17.80;53.30;;;;;;5095863;28;20093;-76
2023/03/18 11:05:34;;;;;;;7.38;2.63;;;17.90;53.30;;;;;;5102296;28;20036;-77
2023/03/18 11:08:04;;;;;;;7.40;2.47;;;17.90;53.20;;;;;;5101681;28;20035;-77
2023/03/18 11:10:42;;;;;;;6.55;2.70;;;18.10;53.20;;;;;;5096298;28;20032;-76
2023/03/18 11:13:16;;;;;;;7.60;2.50;;;18.10;52.70;;;;;;5095818;28;20559;-76
2023/03/18 11:15:55;;;;;;;6.82;2.50;;;18.20;52.30;;;;;;5096310;28;20036;-77
2023/03/18 11:18:23;;;;;;;7.28;2.83;;;18.30;52.40;;;;;;5096371;28;20020;-77
2023/03/18 11:20:59;;;;;;;7.35;2.40;;;18.40;52.50;;;;;;5095525;28;20383;-75
2023/03/18 11:23:47;;;;;;;6.78;2.30;;;18.50;52.50;;;;;;5096511;28;20090;-77
2023/03/18 11:26:29;;;;;;;4.95;2.45;;;18.50;51.70;;;;;;5096094;28;20553;-75
2023/03/18 11:29:15;;;;;;;8.68;2.85;;;18.60;52.20;;;;;;5096095;28;20036;-76
2023/03/18 11:31:57;;;;;;;8.18;2.78;;;18.60;52.40;;;;;;5095693;28;20036;-75
2023/03/18 11:34:28;;;;;;;5.50;2.33;;;18.60;52.30;;;;;;5095437;28;20032;-76
2023/03/18 11:36:57;;;;;;;4.88;2.00;;;18.60;52.50;;;;;;5095846;28;20044;-77
2023/03/18 11:39:26;;;;;;;5.70;2.22;;;18.70;52.70;;;;;;5095551;28;20115;-76
2023/03/18 11:41:52;;;;;;;12.88;2.50;;;18.70;52.70;;;;;;5095393;28;20499;-77
2023/03/18 12:56:08;;;;;;;6.15;1.85;;;19.60;51.10;;;;;;5085827;28;20070;-76
2023/03/18 12:58:42;;;;;;;9.70;2.20;;;19.50;51.90;;;;;;5084739;28;20474;-79
2023/03/18 13:01:48;;;;;;;4.97;1.90;;;19.50;52.00;;;;;;5090902;28;20035;-81
2023/03/18 13:04:23;;;;;;;5.90;2.08;;;19.40;51.50;;;;;;5022099;28;20092;-77
2023/03/18 13:07:14;;;;;;;4.43;1.90;;;19.50;52.00;;;;;;5093408;28;20028;-76
2023/03/18 13:09:53;;;;;;;7.80;2.10;;;19.40;51.70;;;;;;5074530;28;20038;-73
2023/03/18 13:12:41;;;;;;;10.38;2.47;;;19.50;52.60;;;;;;5074712;28;20043;-74
2023/03/18 13:15:23;;;;;;;7.00;2.72;;;19.50;52.80;;;;;;5091857;28;20507;-74
2023/03/18 13:17:54;;;;;;;9.10;2.90;;;19.60;53.10;;;;;;5072485;28;20388;-73
2023/03/18 13:20:22;;;;;;;8.43;2.90;;;19.70;52.60;;;;;;5072021;28;20029;-74
2023/03/18 13:23:41;;;;;;;9.13;2.28;;;19.70;52.40;;;;;;5072333;28;20091;-78
2023/03/18 13:26:21;;;;;;;17.77;6.78;;;19.70;52.40;;;;;;4972140;28;20043;-78
2023/03/18 13:28:46;;;;;;;10.85;3.45;;;19.80;53.20;;;;;;5072345;28;20079;-70
2023/03/18 13:31:20;;;;;;;8.27;2.90;;;19.80;53.20;;;;;;5072310;28;20040;-75
2023/03/18 13:34:06;;;;;;;8.63;2.65;;;19.90;52.90;;;;;;5072680;28;20067;-71
2023/03/18 13:36:59;;;;;;;8.55;2.58;;;19.90;51.60;;;;;;5072613;28;20090;-70
2023/03/18 13:39:36;;;;;;;9.90;2.53;;;20.00;51.90;;;;;;5072234;28;20039;-71
2023/03/18 13:42:22;;;;;;;8.07;2.20;;;20.00;51.70;;;;;;5064271;28;20036;-69
2023/03/18 13:45:11;;;;;;;11.27;2.72;;;20.00;51.80;;;;;;5092392;28;20113;-73
2023/03/18 13:47:39;;;;;;;10.50;2.80;;;20.00;51.90;;;;;;5081837;28;20021;-74
2023/03/18 13:50:05;;;;;;;10.30;2.80;;;20.10;52.00;;;;;;5092426;28;20032;-73
2023/03/18 13:52:42;;;;;;;9.80;2.42;;;20.10;51.60;;;;;;5081558;28;20086;-70
2023/03/18 13:55:30;;;;;;;7.18;2.30;;;20.20;51.60;;;;;;5098201;28;20040;-74
2023/03/18 13:58:17;;;;;;;6.07;2.13;;;20.20;51.00;;;;;;5092389;28;20461;-72
2023/03/18 14:00:53;;;;;;;11.15;2.67;;;20.20;50.60;;;;;;5092650;28;20032;-71
2023/03/18 14:03:31;;;;;;;9.35;2.40;;;20.10;50.40;;;;;;5092406;28;20149;-72